KHTH Airport (Hawthorne Industrial) Information

FAA: HTH - ICAO: KHTH

KHTH Airport Location

State Nevada
County Mineral
City Hawthorne
KHTH Airport is 1 miles north of Hawthorne, NV.
Latitude 38-32-42.2770N
Longitude 118-37-56.6510W
Elevation 4,230ft

KHTH Airport METARs

METAR KHTH 060755Z AUTO 33011KT 10SM CLR 22/07 A2997 RMK A01
Altimeter 29.97"
Temperature 22.0°C (71.6°F)
Wind 330° at 11KT
Clouds Skies are clear.
Visibility 10.0mi
Time observed: 2022-07-06T07:55:00Z

KHTH Airport Details

Status Operational
Activation October 1937
Ownership Public
Usage Public
Chart SAN FRANCISCO
ATC on-site No
Beacon schedule sunset-sunrise
Beacon color clear green

KHTH Airport Contacts

Owner MINERAL COUNTY
Owner address PO BOX 1035, HAWTHORNE, NV 89415
Owner phone 775-945-3897
Manager LANCE GALE
Manager address 1472 MCGILL HIGHWAY, ELY, NV 89315-0437
Manager phone (775) 289-2165

KHTH Airport (Hawthorne Industrial) Radio Frequencies

KHTH (Airport) Radio Frequencies

UNICOM 122.8
Common traffic advisory frequency (CTAF) 122.8